Time;durP1;ratioP1;P1;durP2;ratioP2;P2;SDS_P1;SDS_P2;PMS_P1;PMS_P2;Temp;Humidity;BMP_temperature;BMP_pressure;BME280_temperature;BME280_humidity;BME280_pressure;Samples;Min_cycle;Max_cycle;Signal;HPM_P1;HPM_P2
2023/01/11 00:00:17;;;;;;;3.85;2.10;;;9.30;99.90;;;;;;5063254;28;20430;-37
2023/01/11 00:02:44;;;;;;;2.92;1.63;;;9.30;99.90;;;;;;5065447;28;20508;-38
2023/01/11 00:05:10;;;;;;;3.15;2.03;;;9.30;99.90;;;;;;5062759;28;20051;-37
2023/01/11 00:07:37;;;;;;;4.13;2.20;;;9.40;99.90;;;;;;5064926;28;20053;-39
2023/01/11 00:10:04;;;;;;;3.92;2.15;;;9.40;99.90;;;;;;5065199;28;20540;-40
2023/01/11 00:12:30;;;;;;;3.15;1.73;;;9.40;99.90;;;;;;5057772;28;20067;-40
2023/01/11 00:14:56;;;;;;;4.43;1.75;;;9.40;99.90;;;;;;5062096;28;20043;-40
2023/01/11 00:17:22;;;;;;;4.47;1.80;;;9.40;99.90;;;;;;5066023;28;20041;-39
2023/01/11 00:19:47;;;;;;;5.05;2.30;;;9.50;99.90;;;;;;5050717;28;20048;-38
2023/01/11 00:22:13;;;;;;;3.78;2.28;;;9.50;99.90;;;;;;5063505;28;20032;-38
2023/01/11 00:24:39;;;;;;;4.45;2.20;;;9.50;99.90;;;;;;5045192;28;20425;-43
2023/01/11 00:27:05;;;;;;;3.40;1.48;;;9.50;99.90;;;;;;5046025;28;20470;-38
2023/01/11 00:29:30;;;;;;;2.78;1.45;;;9.50;99.90;;;;;;5065120;28;20024;-38
2023/01/11 00:31:56;;;;;;;2.60;1.17;;;9.50;99.90;;;;;;5065217;28;20059;-39
2023/01/11 00:34:22;;;;;;;2.45;1.55;;;9.50;99.90;;;;;;5061550;28;20517;-38
2023/01/11 00:36:47;;;;;;;2.35;1.25;;;9.50;99.90;;;;;;5062685;28;20410;-38
2023/01/11 00:39:13;;;;;;;2.60;1.33;;;9.50;99.90;;;;;;5066442;28;20597;-38
2023/01/11 00:49:57;;;;;;;3.28;1.50;;;9.70;99.90;;;;;;5064237;28;20505;-38
2023/01/11 00:52:23;;;;;;;2.50;1.50;;;9.60;99.90;;;;;;5065135;28;20066;-37
2023/01/11 00:54:49;;;;;;;3.92;1.92;;;9.60;99.90;;;;;;5063290;28;20171;-37
2023/01/11 00:57:15;;;;;;;2.75;1.50;;;9.60;99.90;;;;;;5066103;28;20028;-38
2023/01/11 00:59:40;;;;;;;2.65;1.30;;;9.60;99.90;;;;;;5065727;28;20103;-38
2023/01/11 01:02:08;;;;;;;3.53;1.83;;;9.60;99.90;;;;;;5068115;28;20032;-38
2023/01/11 01:04:33;;;;;;;3.72;1.90;;;9.60;99.90;;;;;;5047089;28;20036;-38
2023/01/11 01:06:59;;;;;;;4.18;2.20;;;9.60;99.90;;;;;;5065293;28;20076;-37
2023/01/11 01:09:25;;;;;;;2.95;1.63;;;9.60;99.90;;;;;;5062710;28;20068;-38
2023/01/11 01:11:51;;;;;;;3.50;1.80;;;9.60;99.90;;;;;;5063321;28;20126;-37
2023/01/11 01:14:27;;;;;;;3.03;1.55;;;9.60;99.90;;;;;;5063793;28;20474;-39
2023/01/11 01:17:00;;;;;;;4.13;2.10;;;9.60;99.90;;;;;;5064386;28;20048;-39
2023/01/11 01:19:26;;;;;;;3.17;1.83;;;9.60;99.90;;;;;;5066078;28;20119;-45
2023/01/11 01:21:54;;;;;;;5.38;2.45;;;9.60;99.90;;;;;;5062007;28;20110;-40
2023/01/11 01:24:20;;;;;;;4.95;2.05;;;9.70;99.90;;;;;;5063961;28;20032;-37
2023/01/11 01:26:46;;;;;;;3.22;1.90;;;9.70;99.90;;;;;;5060680;28;20077;-41
2023/01/11 01:29:13;;;;;;;3.05;1.52;;;9.70;99.90;;;;;;5058733;28;20124;-39
2023/01/11 01:31:39;;;;;;;6.18;1.80;;;9.70;99.90;;;;;;5064911;28;20044;-37
2023/01/11 01:34:05;;;;;;;5.00;2.13;;;9.80;99.90;;;;;;5046471;28;20701;-38
2023/01/11 01:36:31;;;;;;;5.55;1.90;;;9.80;99.90;;;;;;5063321;28;20038;-37
2023/01/11 01:39:01;;;;;;;4.53;1.90;;;9.80;99.90;;;;;;5065607;28;20052;-39
2023/01/11 01:41:27;;;;;;;2.90;1.40;;;9.90;99.90;;;;;;5062227;28;20036;-38
2023/01/11 01:44:01;;;;;;;2.83;1.40;;;9.90;99.90;;;;;;5063477;28;20044;-38
2023/01/11 01:46:29;;;;;;;3.35;1.70;;;9.90;99.90;;;;;;5061711;28;20028;-38
2023/01/11 01:49:15;;;;;;;3.50;1.70;;;10.00;99.90;;;;;;5064990;28;20127;-37
2023/01/11 01:51:50;;;;;;;5.07;1.70;;;10.00;99.90;;;;;;5066726;28;20044;-37
2023/01/11 01:54:24;;;;;;;2.97;1.45;;;10.00;99.90;;;;;;5063806;28;20049;-37
2023/01/11 01:56:56;;;;;;;2.00;1.23;;;10.00;99.90;;;;;;5048024;28;20040;-37
2023/01/11 01:59:24;;;;;;;7.30;1.70;;;10.00;99.90;;;;;;5044232;28;20071;-39
2023/01/11 02:01:51;;;;;;;4.32;2.00;;;10.00;99.90;;;;;;5062497;28;20044;-37
2023/01/11 02:04:16;;;;;;;3.25;1.50;;;10.00;99.90;;;;;;5049024;28;20116;-39
2023/01/11 02:06:42;;;;;;;5.10;1.48;;;10.00;99.90;;;;;;5062766;28;20143;-38
2023/01/11 02:09:28;;;;;;;2.70;1.58;;;10.00;99.90;;;;;;5064001;28;20047;-38
2023/01/11 02:11:56;;;;;;;3.55;1.35;;;10.00;99.90;;;;;;5049833;28;20531;-38
2023/01/11 02:14:23;;;;;;;2.72;1.40;;;10.10;99.90;;;;;;5064515;28;20032;-38
2023/01/11 02:16:48;;;;;;;3.60;1.48;;;10.10;99.90;;;;;;5066593;28;20055;-38
2023/01/11 02:19:28;;;;;;;2.15;1.25;;;10.10;99.90;;;;;;5064071;28;20044;-40
2023/01/11 02:22:15;;;;;;;2.85;1.42;;;10.10;99.90;;;;;;5065909;28;20482;-37
2023/01/11 02:24:59;;;;;;;2.28;1.20;;;10.10;99.90;;;;;;5065006;28;20098;-37
2023/01/11 02:27:59;;;;;;;1.55;0.73;;;10.20;99.90;;;;;;5062573;28;20045;-37
2023/01/11 02:30:41;;;;;;;2.10;0.80;;;10.20;99.90;;;;;;5057882;28;20040;-37
2023/01/11 02:33:22;;;;;;;1.90;0.90;;;10.20;99.90;;;;;;5061118;28;20490;-37
2023/01/11 02:36:19;;;;;;;3.45;1.00;;;10.20;99.90;;;;;;5059795;28;20051;-38
2023/01/11 02:39:04;;;;;;;2.00;0.90;;;10.20;99.90;;;;;;5066446;28;20071;-38
2023/01/11 02:45:08;;;;;;;2.97;1.48;;;10.30;99.90;;;;;;5061725;28;20052;-40
2023/01/11 02:47:51;;;;;;;3.83;0.98;;;10.30;99.90;;;;;;5066575;28;20041;-37
2023/01/11 02:50:28;;;;;;;1.60;0.50;;;10.20;99.90;;;;;;5068347;28;20087;-37
2023/01/11 02:53:34;;;;;;;1.15;0.60;;;10.30;99.90;;;;;;5076301;28;20102;-38
2023/01/11 02:56:06;;;;;;;1.05;0.43;;;10.30;99.90;;;;;;5065620;28;20053;-37
2023/01/11 02:58:35;;;;;;;1.00;0.50;;;10.30;99.90;;;;;;5067224;28;20044;-38
2023/01/11 03:01:02;;;;;;;1.42;0.60;;;10.30;99.90;;;;;;5065153;28;20068;-38
2023/01/11 03:03:28;;;;;;;2.40;0.80;;;10.30;99.90;;;;;;5067670;28;20047;-37
2023/01/11 03:06:03;;;;;;;1.00;0.50;;;10.30;99.90;;;;;;5063027;28;20090;-38
2023/01/11 03:08:44;;;;;;;0.73;0.47;;;10.30;99.90;;;;;;5080406;28;20055;-37
2023/01/11 03:12:50;;;;;;;1.52;0.65;;;10.40;99.90;;;;;;5066529;28;20045;-37
2023/01/11 03:14:17;;;;;;;1.77;0.60;;;10.30;99.90;;;;;;5066853;28;20070;-38
2023/01/11 03:16:54;;;;;;;1.95;0.60;;;10.30;99.90;;;;;;5066415;28;20044;-38
2023/01/11 03:19:38;;;;;;;2.30;0.90;;;10.30;99.90;;;;;;5069113;28;20036;-37
2023/01/11 03:22:15;;;;;;;2.33;0.68;;;10.30;99.90;;;;;;5067910;28;20063;-38
2023/01/11 03:24:56;;;;;;;3.08;0.95;;;10.40;99.90;;;;;;5045128;28;20041;-38
2023/01/11 03:27:37;;;;;;;1.10;0.63;;;10.40;99.90;;;;;;5068239;28;20037;-39
2023/01/11 03:30:12;;;;;;;3.22;0.95;;;10.40;99.90;;;;;;5066840;28;20053;-38
2023/01/11 03:32:52;;;;;;;1.90;0.93;;;10.40;99.90;;;;;;5065984;28;20064;-39
2023/01/11 03:35:39;;;;;;;1.95;1.10;;;10.40;99.90;;;;;;5063279;28;20080;-37
2023/01/11 03:38:25;;;;;;;2.17;0.93;;;10.40;99.90;;;;;;5066448;28;20044;-48
2023/01/11 03:41:06;;;;;;;3.03;1.20;;;10.40;99.90;;;;;;5060963;28;20433;-38
2023/01/11 03:43:35;;;;;;;1.90;1.00;;;10.40;99.90;;;;;;5066475;28;20040;-38
2023/01/11 03:46:09;;;;;;;1.67;0.80;;;10.40;99.90;;;;;;5067210;28;20036;-37
2023/01/11 03:48:50;;;;;;;2.10;0.93;;;10.50;99.90;;;;;;5065725;28;20040;-41
2023/01/11 03:51:22;;;;;;;1.95;0.80;;;10.50;99.90;;;;;;5064345;28;20529;-38
2023/01/11 03:53:49;;;;;;;2.00;0.93;;;10.50;99.90;;;;;;5066698;28;20483;-37
2023/01/11 03:56:19;;;;;;;2.10;1.13;;;10.50;99.90;;;;;;5062834;28;20424;-38
2023/01/11 03:58:45;;;;;;;2.83;1.10;;;10.50;99.90;;;;;;5064635;28;20490;-37
2023/01/11 04:01:12;;;;;;;2.40;1.05;;;10.50;99.90;;;;;;5065963;28;20035;-39
2023/01/11 04:03:37;;;;;;;2.40;1.00;;;10.50;99.90;;;;;;5067330;28;20084;-38
2023/01/11 04:06:03;;;;;;;1.73;0.90;;;10.60;99.90;;;;;;5067559;28;20072;-38
2023/01/11 04:08:30;;;;;;;2.17;0.95;;;10.50;99.90;;;;;;5064610;28;20124;-38
2023/01/11 04:10:55;;;;;;;1.70;0.90;;;10.50;99.90;;;;;;5071033;28;20032;-39
2023/01/11 04:13:21;;;;;;;3.45;1.00;;;10.50;99.90;;;;;;5046150;28;20551;-37
2023/01/11 04:15:47;;;;;;;3.88;1.50;;;10.50;99.90;;;;;;5064337;28;20044;-39
2023/01/11 04:18:13;;;;;;;3.15;1.42;;;10.60;99.90;;;;;;5067160;28;20409;-37
2023/01/11 04:20:39;;;;;;;5.57;1.63;;;10.60;99.90;;;;;;5061670;28;20060;-38
2023/01/11 04:23:06;;;;;;;3.90;1.92;;;10.60;99.90;;;;;;5066001;28;20046;-39
2023/01/11 04:25:32;;;;;;;6.50;2.17;;;10.60;99.90;;;;;;5062464;28;20143;-38
2023/01/11 04:27:58;;;;;;;4.57;2.22;;;10.60;99.90;;;;;;5067341;28;20534;-37
2023/01/11 04:30:24;;;;;;;5.30;2.30;;;10.60;99.90;;;;;;5060921;28;21492;-37
2023/01/11 04:32:50;;;;;;;8.90;2.25;;;10.60;99.90;;;;;;5063118;28;20036;-38
2023/01/11 04:35:16;;;;;;;3.78;2.30;;;10.60;99.90;;;;;;5063690;28;20071;-39
2023/01/11 04:37:42;;;;;;;6.18;2.10;;;10.70;99.90;;;;;;5060806;28;20056;-38
2023/01/11 04:40:08;;;;;;;5.07;2.05;;;10.60;99.90;;;;;;5065739;28;20041;-37
2023/01/11 04:42:34;;;;;;;8.05;2.30;;;10.70;99.90;;;;;;5061608;28;20101;-38
2023/01/11 04:45:00;;;;;;;6.40;1.98;;;10.70;99.90;;;;;;5062813;28;20048;-37
2023/01/11 04:47:26;;;;;;;8.95;2.20;;;10.70;99.90;;;;;;5067423;28;20036;-37
2023/01/11 04:49:52;;;;;;;12.23;2.38;;;10.70;99.90;;;;;;5067217;28;20078;-37
2023/01/11 04:52:19;;;;;;;6.22;2.42;;;10.70;99.90;;;;;;5066685;28;20045;-38
2023/01/11 04:54:47;;;;;;;7.90;1.85;;;10.70;99.90;;;;;;5061322;28;20115;-38
2023/01/11 04:57:15;;;;;;;8.68;1.83;;;10.70;99.90;;;;;;5054811;28;20405;-38
2023/01/11 04:59:41;;;;;;;9.73;2.35;;;10.70;99.90;;;;;;5056810;28;20125;-38
2023/01/11 05:02:07;;;;;;;11.88;1.50;;;10.70;99.90;;;;;;5042680;28;20036;-38
2023/01/11 05:04:33;;;;;;;10.25;2.15;;;10.70;99.90;;;;;;5056605;28;20475;-39
2023/01/11 05:06:59;;;;;;;10.95;1.80;;;10.70;99.90;;;;;;5063516;28;20036;-37
2023/01/11 05:09:24;;;;;;;8.98;1.48;;;10.70;99.90;;;;;;5035417;28;20040;-46
2023/01/11 05:11:50;;;;;;;11.75;1.50;;;10.70;99.90;;;;;;5057361;28;20033;-38
2023/01/11 05:14:16;;;;;;;10.32;1.38;;;10.70;99.90;;;;;;5056947;28;20033;-38
2023/01/11 05:16:42;;;;;;;12.13;1.98;;;10.70;99.90;;;;;;5064480;28;20119;-37
2023/01/11 05:19:09;;;;;;;13.68;1.60;;;10.70;99.90;;;;;;5064855;28;20154;-38
2023/01/11 05:21:40;;;;;;;9.38;1.65;;;10.70;99.90;;;;;;5066053;28;20044;-38
2023/01/11 05:24:12;;;;;;;9.77;1.35;;;10.60;99.90;;;;;;5060230;28;20551;-38
2023/01/11 05:26:39;;;;;;;11.65;1.40;;;10.70;99.90;;;;;;5063813;28;20048;-39
2023/01/11 05:29:08;;;;;;;17.63;2.38;;;10.60;99.90;;;;;;5066481;28;20083;-38
2023/01/11 05:31:35;;;;;;;7.85;1.10;;;10.60;99.90;;;;;;5063151;28;20529;-40
2023/01/11 05:34:01;;;;;;;14.23;2.13;;;10.60;99.90;;;;;;5064497;28;20421;-37
2023/01/11 05:36:27;;;;;;;15.63;1.92;;;10.50;99.90;;;;;;5062618;28;20097;-38
2023/01/11 05:38:55;;;;;;;11.85;1.15;;;10.50;99.90;;;;;;5063496;28;20090;-38
2023/01/11 05:41:22;;;;;;;12.00;1.52;;;10.50;99.90;;;;;;5078952;28;20044;-38
2023/01/11 05:46:36;;;;;;;19.85;1.65;;;10.50;99.90;;;;;;5067328;28;20051;-49
2023/01/11 05:49:02;;;;;;;11.45;1.88;;;10.50;99.90;;;;;;5061110;28;20048;-46
2023/01/11 05:51:29;;;;;;;11.50;1.38;;;10.40;99.90;;;;;;5063958;28;20505;-49
2023/01/11 05:53:59;;;;;;;17.08;2.30;;;10.40;99.90;;;;;;5064354;28;20501;-46
2023/01/11 05:56:25;;;;;;;14.88;1.70;;;10.40;99.90;;;;;;5047940;28;20052;-47
2023/01/11 05:58:51;;;;;;;19.38;2.10;;;10.40;99.90;;;;;;5063908;28;20120;-43
2023/01/11 06:01:18;;;;;;;13.77;2.10;;;10.40;99.90;;;;;;5064097;28;20664;-46
2023/01/11 06:03:44;;;;;;;17.35;1.83;;;10.40;99.90;;;;;;5062251;28;20032;-48
2023/01/11 06:06:11;;;;;;;12.68;1.92;;;10.30;99.90;;;;;;5058888;28;20055;-50
2023/01/11 06:08:36;;;;;;;13.20;2.28;;;10.30;99.90;;;;;;5066336;28;20039;-48
2023/01/11 06:11:03;;;;;;;18.15;2.38;;;10.20;99.90;;;;;;5061191;28;20041;-45
2023/01/11 06:13:28;;;;;;;13.63;1.50;;;10.30;99.90;;;;;;5066273;28;20028;-46
2023/01/11 06:16:15;;;;;;;12.23;1.27;;;10.20;99.90;;;;;;5062375;28;20420;-47
2023/01/11 06:18:44;;;;;;;18.48;1.50;;;10.20;99.90;;;;;;5064828;28;20040;-51
2023/01/11 06:21:11;;;;;;;19.42;2.22;;;10.30;99.90;;;;;;5068844;28;20489;-45
2023/01/11 06:23:39;;;;;;;12.13;2.10;;;10.20;99.90;;;;;;5067202;28;20537;-50
2023/01/11 06:26:08;;;;;;;9.45;1.58;;;10.20;99.90;;;;;;5066553;28;20051;-40
2023/01/11 06:28:34;;;;;;;13.10;2.45;;;10.20;99.90;;;;;;5069734;28;20566;-45
2023/01/11 06:31:01;;;;;;;23.35;2.08;;;10.20;99.90;;;;;;5064350;28;20035;-41
2023/01/11 06:33:28;;;;;;;12.00;1.38;;;10.10;99.90;;;;;;5063917;28;20107;-44
2023/01/11 06:35:54;;;;;;;13.52;2.08;;;10.10;99.90;;;;;;5065188;28;20040;-47
2023/01/11 06:38:22;;;;;;;18.05;2.25;;;10.10;99.90;;;;;;5065384;28;20081;-38
2023/01/11 06:40:56;;;;;;;11.50;1.13;;;10.10;99.90;;;;;;5064383;28;20044;-44
2023/01/11 06:43:23;;;;;;;11.77;1.70;;;10.10;99.90;;;;;;5063141;28;20122;-43
2023/01/11 06:45:49;;;;;;;21.58;2.10;;;10.00;99.90;;;;;;5061814;28;20465;-42
2023/01/11 06:48:16;;;;;;;13.93;1.60;;;10.00;99.90;;;;;;5062031;28;20042;-41
2023/01/11 06:50:42;;;;;;;12.98;2.00;;;9.90;99.90;;;;;;5068349;28;20141;-47
2023/01/11 06:53:08;;;;;;;15.60;2.67;;;9.90;99.90;;;;;;5062890;28;20144;-47
2023/01/11 06:55:34;;;;;;;17.90;2.28;;;9.90;99.90;;;;;;5033183;28;20076;-45
2023/01/11 06:57:59;;;;;;;14.27;2.72;;;9.90;99.90;;;;;;5050945;28;20048;-47
2023/01/11 07:00:25;;;;;;;17.25;2.00;;;9.90;99.90;;;;;;5043470;28;20048;-37
2023/01/11 07:02:51;;;;;;;14.40;2.10;;;9.90;99.90;;;;;;5047895;28;20414;-42
2023/01/11 07:05:17;;;;;;;13.23;1.92;;;9.80;99.90;;;;;;5043643;28;20494;-48
2023/01/11 07:07:43;;;;;;;12.30;1.98;;;9.90;99.90;;;;;;5037177;28;20040;-44
2023/01/11 07:10:14;;;;;;;14.00;2.20;;;9.80;99.90;;;;;;5040554;28;20048;-46
2023/01/11 07:12:39;;;;;;;19.25;2.40;;;9.80;99.90;;;;;;5042868;28;20517;-49
2023/01/11 07:15:07;;;;;;;15.77;2.15;;;9.80;99.90;;;;;;5037900;28;21277;-49
2023/01/11 07:17:33;;;;;;;14.60;2.75;;;9.80;99.90;;;;;;5042430;28;20645;-47
2023/01/11 07:19:59;;;;;;;16.67;1.60;;;9.80;99.90;;;;;;5041818;28;20112;-50
2023/01/11 07:22:25;;;;;;;10.43;1.92;;;9.80;99.90;;;;;;5044651;28;20191;-46
2023/01/11 07:24:51;;;;;;;11.97;1.53;;;9.80;99.90;;;;;;5045621;28;20037;-42
2023/01/11 07:27:18;;;;;;;14.82;1.88;;;9.80;99.90;;;;;;5043690;28;20043;-49
2023/01/11 07:29:44;;;;;;;11.95;1.55;;;9.80;99.90;;;;;;5040022;28;20522;-49
2023/01/11 07:32:10;;;;;;;12.77;2.08;;;9.70;99.90;;;;;;5041603;28;20534;-47
2023/01/11 07:34:36;;;;;;;12.90;1.40;;;9.70;99.90;;;;;;5040556;28;20106;-39
2023/01/11 07:37:02;;;;;;;14.07;1.67;;;9.80;99.90;;;;;;5052614;28;20056;-46
2023/01/11 07:39:28;;;;;;;13.18;1.50;;;9.80;99.90;;;;;;5044631;28;20045;-41
2023/01/11 07:44:38;;;;;;;12.48;2.38;;;9.70;99.90;;;;;;5045566;28;20041;-41
2023/01/11 07:47:04;;;;;;;14.75;2.20;;;9.70;99.90;;;;;;5041746;28;20072;-49
2023/01/11 07:49:30;;;;;;;7.45;1.35;;;9.70;99.90;;;;;;5041608;28;20399;-49
2023/01/11 07:51:56;;;;;;;22.73;2.47;;;9.70;99.90;;;;;;5036322;28;20040;-49
2023/01/11 07:54:23;;;;;;;9.23;2.15;;;9.70;99.90;;;;;;5039124;28;20505;-45
2023/01/11 07:56:49;;;;;;;12.20;1.23;;;9.70;99.90;;;;;;5042059;28;20087;-49
2023/01/11 07:59:15;;;;;;;10.32;1.55;;;9.60;99.90;;;;;;5040269;28;20159;-49
2023/01/11 08:01:41;;;;;;;10.65;1.73;;;9.60;99.90;;;;;;5041966;28;20045;-42
2023/01/11 08:04:10;;;;;;;8.65;1.20;;;9.60;99.90;;;;;;5043978;28;20067;-43
2023/01/11 08:06:39;;;;;;;11.23;1.42;;;9.60;99.90;;;;;;5039808;28;20119;-50
2023/01/11 08:09:05;;;;;;;16.27;1.63;;;9.60;99.90;;;;;;5047373;28;20116;-51
2023/01/11 08:17:00;;;;;;;11.50;1.25;;;9.60;99.90;;;;;;5038978;28;20044;-49
2023/01/11 08:19:25;;;;;;;12.13;2.35;;;9.60;99.90;;;;;;5047455;28;20099;-37
2023/01/11 08:21:51;;;;;;;13.88;1.20;;;9.60;99.90;;;;;;5046727;28;20037;-40
2023/01/11 08:24:17;;;;;;;11.38;1.70;;;9.60;99.90;;;;;;5047382;28;20072;-39
2023/01/11 08:26:43;;;;;;;8.63;1.00;;;9.50;99.90;;;;;;5042916;28;20083;-37
2023/01/11 08:29:09;;;;;;;7.50;1.60;;;9.50;99.90;;;;;;5045783;28;20041;-37
2023/01/11 08:31:34;;;;;;;12.63;1.25;;;9.50;99.90;;;;;;5045240;28;20086;-37
2023/01/11 08:34:00;;;;;;;9.55;1.25;;;9.40;99.90;;;;;;5045722;28;20035;-38
2023/01/11 08:36:26;;;;;;;13.98;1.40;;;9.40;99.90;;;;;;5045384;28;20044;-37
2023/01/11 08:38:56;;;;;;;10.85;1.83;;;9.40;99.90;;;;;;5042907;28;20560;-38
2023/01/11 08:41:22;;;;;;;7.50;1.10;;;9.40;99.90;;;;;;5054193;28;20490;-38
2023/01/11 08:43:48;;;;;;;9.90;0.95;;;9.30;99.90;;;;;;5046142;28;20075;-38
2023/01/11 08:46:15;;;;;;;16.65;1.98;;;9.30;99.90;;;;;;5044139;28;20060;-37
2023/01/11 08:48:41;;;;;;;17.30;1.75;;;9.30;99.90;;;;;;5047504;28;20041;-42
2023/01/11 08:51:08;;;;;;;7.43;0.90;;;9.30;99.90;;;;;;5047206;28;20037;-37
2023/01/11 08:53:34;;;;;;;11.27;2.17;;;9.20;99.90;;;;;;5062065;28;20067;-37
2023/01/11 08:56:00;;;;;;;8.23;0.90;;;9.20;99.90;;;;;;5063343;28;20056;-37
2023/01/11 08:58:25;;;;;;;10.05;1.05;;;9.20;99.90;;;;;;5064261;28;20584;-37
2023/01/11 09:00:51;;;;;;;7.80;1.42;;;9.20;99.90;;;;;;5068406;28;20128;-37
2023/01/11 09:03:17;;;;;;;8.82;1.15;;;9.20;99.90;;;;;;5057013;28;20040;-37
2023/01/11 09:05:44;;;;;;;9.35;1.20;;;9.20;99.90;;;;;;5056817;28;20036;-39
2023/01/11 09:08:10;;;;;;;10.88;1.50;;;9.20;99.90;;;;;;5044445;28;20055;-37
2023/01/11 09:10:36;;;;;;;18.80;1.90;;;9.10;99.90;;;;;;5060372;28;20119;-40
2023/01/11 09:13:02;;;;;;;16.15;1.58;;;9.10;99.90;;;;;;5065112;28;20165;-38
2023/01/11 09:15:28;;;;;;;7.18;1.05;;;9.00;99.90;;;;;;5041688;28;20048;-39
2023/01/11 09:17:54;;;;;;;9.45;1.38;;;9.00;99.90;;;;;;5065409;28;20036;-37
2023/01/11 09:20:20;;;;;;;13.40;1.58;;;9.00;99.90;;;;;;5059478;28;20102;-40
2023/01/11 09:22:52;;;;;;;15.23;1.48;;;9.00;99.90;;;;;;5066427;28;20052;-40
2023/01/11 09:25:19;;;;;;;7.47;2.67;;;8.90;99.90;;;;;;5058930;28;20041;-37
2023/01/11 09:27:46;;;;;;;11.60;1.63;;;9.00;99.90;;;;;;5059002;28;20125;-36
2023/01/11 09:30:14;;;;;;;12.45;1.73;;;9.00;99.90;;;;;;5062209;28;20386;-39
2023/01/11 09:32:40;;;;;;;12.00;1.35;;;9.10;99.90;;;;;;5062571;28;20032;-37
2023/01/11 09:35:06;;;;;;;7.88;0.90;;;9.20;99.90;;;;;;5061764;28;20033;-38
2023/01/11 09:37:32;;;;;;;18.38;1.10;;;9.20;99.90;;;;;;5062885;28;20489;-37
2023/01/11 09:39:58;;;;;;;7.10;1.13;;;9.30;99.90;;;;;;5059198;28;20028;-37
2023/01/11 09:42:39;;;;;;;6.03;1.20;;;9.30;99.90;;;;;;5062554;28;20098;-36
2023/01/11 09:45:17;;;;;;;11.25;1.70;;;9.30;99.90;;;;;;5062929;28;20124;-38
2023/01/11 09:47:52;;;;;;;13.40;1.70;;;9.30;99.90;;;;;;5062026;28;20053;-37
2023/01/11 09:50:26;;;;;;;10.13;1.73;;;9.30;99.90;;;;;;5063190;28;20086;-37
2023/01/11 09:53:07;;;;;;;11.68;1.38;;;9.20;99.90;;;;;;5063092;28;20864;-40
2023/01/11 09:55:35;;;;;;;14.40;1.35;;;9.20;99.90;;;;;;5061735;28;20040;-38
2023/01/11 09:58:21;;;;;;;12.82;1.02;;;9.20;99.90;;;;;;5066023;28;20040;-38
2023/01/11 10:01:16;;;;;;;7.75;1.55;;;9.20;99.90;;;;;;5060628;28;20467;-39
2023/01/11 10:04:05;;;;;;;11.18;1.65;;;9.30;99.90;;;;;;5060275;28;20098;-37
2023/01/11 10:06:50;;;;;;;6.45;1.30;;;9.30;99.90;;;;;;5065789;28;20028;-37
2023/01/11 10:09:46;;;;;;;11.60;1.27;;;9.30;99.90;;;;;;5067967;28;20188;-36
2023/01/11 10:12:30;;;;;;;10.70;2.05;;;9.40;99.90;;;;;;5067247;28;20040;-40
2023/01/11 10:15:11;;;;;;;10.38;1.50;;;9.40;99.90;;;;;;5067975;28;20028;-37
2023/01/11 10:17:48;;;;;;;11.30;1.40;;;9.40;99.90;;;;;;5067480;28;20047;-37
2023/01/11 10:20:33;;;;;;;12.93;1.83;;;9.50;99.90;;;;;;5071200;28;20048;-48
2023/01/11 10:23:14;;;;;;;8.32;1.23;;;9.50;99.90;;;;;;5060238;28;20080;-46
2023/01/11 10:25:49;;;;;;;12.80;2.30;;;9.60;99.90;;;;;;5058622;28;20036;-44
2023/01/11 10:28:30;;;;;;;9.75;1.42;;;9.60;99.90;;;;;;5066595;28;20043;-60
2023/01/11 10:31:10;;;;;;;7.82;1.05;;;9.60;99.90;;;;;;5052072;28;20032;-44
2023/01/11 10:42:50;;;;;;;8.93;1.20;;;9.70;99.90;;;;;;5069790;28;20041;-46
2023/01/11 10:45:19;;;;;;;10.57;1.38;;;9.80;99.90;;;;;;5059965;28;20063;-40
2023/01/11 10:48:04;;;;;;;8.75;1.33;;;9.80;99.90;;;;;;5065249;28;20048;-45
2023/01/11 10:50:39;;;;;;;12.40;1.77;;;9.80;99.90;;;;;;5063635;28;20448;-41
2023/01/11 10:53:29;;;;;;;8.13;1.50;;;9.90;99.90;;;;;;5059348;28;20528;-47
2023/01/11 10:56:22;;;;;;;15.10;2.28;;;9.90;99.90;;;;;;5048298;28;20509;-42
2023/01/11 10:59:22;;;;;;;10.98;1.92;;;10.00;99.90;;;;;;5030634;28;20504;-48
2023/01/11 11:02:03;;;;;;;8.57;1.20;;;10.20;99.90;;;;;;5031319;28;20102;-42
2023/01/11 11:04:35;;;;;;;16.23;1.98;;;10.50;99.90;;;;;;5042810;28;20036;-51
2023/01/11 11:07:16;;;;;;;6.93;1.23;;;10.60;99.90;;;;;;5052812;28;20041;-45
2023/01/11 11:09:54;;;;;;;9.57;1.05;;;10.50;99.90;;;;;;5048427;28;20045;-48
2023/01/11 11:12:40;;;;;;;5.50;1.08;;;10.50;99.90;;;;;;5027340;28;20036;-41
2023/01/11 11:15:18;;;;;;;13.75;1.33;;;10.70;99.90;;;;;;5043537;28;20029;-45
2023/01/11 11:17:52;;;;;;;8.68;1.27;;;10.90;99.90;;;;;;5027776;28;20065;-46
2023/01/11 11:20:21;;;;;;;10.30;1.00;;;10.80;99.90;;;;;;5047606;28;20057;-45
2023/01/11 11:22:52;;;;;;;11.70;1.50;;;10.60;99.90;;;;;;5034518;28;20044;-47
2023/01/11 11:25:21;;;;;;;8.90;1.20;;;10.50;99.90;;;;;;5038681;28;20502;-42
2023/01/11 11:27:50;;;;;;;8.88;1.15;;;10.50;99.90;;;;;;5040699;28;20044;-43
2023/01/11 11:30:41;;;;;;;8.77;1.40;;;10.70;99.90;;;;;;5026002;28;20037;-44
2023/01/11 11:33:22;;;;;;;9.93;1.30;;;11.10;99.90;;;;;;5025400;28;20486;-49
2023/01/11 11:36:16;;;;;;;11.90;1.55;;;11.40;99.90;;;;;;5046135;28;20048;-55
2023/01/11 11:39:10;;;;;;;12.65;1.27;;;11.70;99.90;;;;;;5042901;28;20052;-47
2023/01/11 11:41:48;;;;;;;10.25;1.40;;;11.90;99.90;;;;;;5047684;28;20534;-45
2023/01/11 11:44:20;;;;;;;13.90;1.85;;;12.00;99.90;;;;;;5041290;28;20041;-42
2023/01/11 11:47:00;;;;;;;12.73;1.10;;;12.20;99.90;;;;;;5039746;28;20094;-36
2023/01/11 11:49:27;;;;;;;8.30;1.52;;;12.40;99.90;;;;;;5041597;28;20855;-38
2023/01/11 11:51:53;;;;;;;8.18;1.25;;;12.40;99.90;;;;;;5045949;28;20119;-51
2023/01/11 11:54:21;;;;;;;11.02;1.83;;;12.70;99.90;;;;;;5060543;28;20055;-37
2023/01/11 11:56:47;;;;;;;7.43;1.70;;;12.70;99.90;;;;;;5060963;28;20083;-39
2023/01/11 11:59:17;;;;;;;11.48;1.40;;;12.60;99.90;;;;;;5056444;28;20067;-38
2023/01/11 12:01:46;;;;;;;8.75;1.50;;;12.50;99.90;;;;;;5063765;28;20080;-38
2023/01/11 12:04:18;;;;;;;13.35;2.15;;;12.40;99.90;;;;;;5061500;28;20037;-37
2023/01/11 12:06:50;;;;;;;9.98;1.10;;;12.20;99.90;;;;;;5064842;28;20045;-38
2023/01/11 12:09:30;;;;;;;7.20;1.53;;;11.80;99.90;;;;;;5060633;28;20067;-37
2023/01/11 12:11:57;;;;;;;10.40;1.30;;;11.50;99.90;;;;;;5064459;28;20044;-38
2023/01/11 12:14:33;;;;;;;7.95;1.40;;;11.40;99.90;;;;;;5062249;28;20036;-38
2023/01/11 12:16:58;;;;;;;8.68;2.00;;;11.90;99.90;;;;;;5058577;28;20043;-37
2023/01/11 12:19:41;;;;;;;10.73;1.42;;;12.20;99.90;;;;;;5061774;28;20032;-37
2023/01/11 12:22:23;;;;;;;8.73;2.13;;;12.00;99.90;;;;;;5056521;28;20623;-38
2023/01/11 12:25:20;;;;;;;15.20;2.58;;;11.80;99.90;;;;;;5061471;28;20674;-37
2023/01/11 12:28:07;;;;;;;11.27;1.45;;;11.50;99.90;;;;;;5060307;28;20122;-41
2023/01/11 12:31:11;;;;;;;12.35;1.98;;;11.30;99.90;;;;;;5058585;28;20108;-37
2023/01/11 12:33:57;;;;;;;10.63;2.17;;;11.10;99.90;;;;;;5060828;28;20040;-38
2023/01/11 12:36:45;;;;;;;14.65;1.65;;;10.90;99.90;;;;;;5061921;28;20041;-37
2023/01/11 12:39:25;;;;;;;12.88;1.90;;;10.80;99.90;;;;;;5061088;28;20041;-37
2023/01/11 12:42:02;;;;;;;12.15;1.45;;;10.60;99.90;;;;;;5060086;28;20493;-39
2023/01/11 12:44:55;;;;;;;10.48;1.38;;;10.40;99.90;;;;;;5062755;28;20559;-37
2023/01/11 12:47:42;;;;;;;12.88;1.83;;;10.30;99.90;;;;;;5065263;28;20032;-37
2023/01/11 12:50:13;;;;;;;11.13;1.00;;;10.20;99.90;;;;;;5063576;28;20076;-36
2023/01/11 12:52:51;;;;;;;8.82;1.58;;;10.10;99.90;;;;;;5061331;28;20052;-38
2023/01/11 12:55:34;;;;;;;5.85;1.15;;;10.10;99.90;;;;;;5061284;28;20119;-38
2023/01/11 12:58:06;;;;;;;;;;;10.00;99.90;;;;;;5059912;28;20113;-37
2023/01/11 13:00:54;;;;;;;14.02;2.63;;;9.90;99.90;;;;;;5066334;28;19973;-37
2023/01/11 13:03:44;;;;;;;15.30;1.27;;;9.90;99.90;;;;;;5058381;28;20044;-39
2023/01/11 13:06:23;;;;;;;6.53;1.38;;;9.90;99.90;;;;;;5057661;28;20037;-38
2023/01/11 13:08:58;;;;;;;4.93;1.10;;;9.90;99.90;;;;;;5059084;28;20045;-38
2023/01/11 13:11:39;;;;;;;7.45;0.88;;;9.90;99.90;;;;;;5062705;28;20110;-37
2023/01/11 13:14:34;;;;;;;13.77;1.80;;;9.80;99.90;;;;;;5060911;28;20094;-37
2023/01/11 13:17:26;;;;;;;11.02;1.20;;;9.80;99.90;;;;;;5060100;28;20089;-37
2023/01/11 13:20:07;;;;;;;13.10;1.20;;;9.90;99.90;;;;;;5063623;28;20044;-36
2023/01/11 13:22:37;;;;;;;6.78;1.30;;;10.00;99.90;;;;;;5063025;28;20158;-36
2023/01/11 13:25:17;;;;;;;10.43;2.10;;;10.30;99.90;;;;;;5061278;28;20037;-38
2023/01/11 13:27:44;;;;;;;12.65;1.73;;;10.70;99.90;;;;;;5056440;28;20069;-42
2023/01/11 13:30:13;;;;;;;8.82;1.23;;;11.00;99.90;;;;;;5055897;28;20076;-38
2023/01/11 13:32:43;;;;;;;12.15;1.77;;;11.20;99.90;;;;;;5054705;28;20132;-39
2023/01/11 13:35:19;;;;;;;9.10;1.30;;;11.30;99.90;;;;;;5038580;28;20059;-37
2023/01/11 13:37:59;;;;;;;11.52;1.23;;;11.30;99.10;;;;;;5060101;28;20581;-37
2023/01/11 13:40:31;;;;;;;8.50;1.20;;;11.40;99.00;;;;;;5062905;28;20350;-38
2023/01/11 13:43:05;;;;;;;9.88;1.23;;;11.50;99.10;;;;;;5062891;28;20094;-37